Decoded Metar for UMMS (MINSK 2 in BELARUS) (IATA:MSQ) | Meteo·Mobile Aviation Weather
aviador You're here:

UMMS Decoded Metar

MINSK 2 in BELARUS
Report Time2018-08-17 14:30:00
UTC Time2018-08-17 14:42:36
Flight Rules vfr VFR
Wind130° at 6 kt
W.Decomp.*RWY 13: 5.9 kt HW 0.8 kt LCW
W.Rank130° ranks 7
Current wind is below 130° avg. (7.0)
Visibility9999 m
Phenomena:N/A
Clouds:Scattered 048 Hf
Expected CloudBase > 4,400 ft AGL from Temp-Dew spread
CeilingNone
Temp26°C (ISA +12)
Dew Point15°C (51% RH)
AAT25.5°C
QNH1019 hPa
Density Alt2,126 ft
Elevation673 ft
Report Wrong Elevation
Raw Report
UMMS 171430Z 13003MPS 100V160 9999 SCT048 26/15 Q1019 R13/CLRD//
NOSIG=

Extra information for UMMS:More info

Metar Taf Metar & Taf Last 4 Metars F.Rules Stats Wind Profile Meteogram Temp Stats Airport Information Weather charts Add Link Nearby VenuesMetar ALERT Operation Metar Decoded Social comments